createdAt,value
2023-05-21T00:01:24.022Z,99.90
2023-05-21T00:03:54.213Z,99.90
2023-05-21T00:06:23.325Z,99.90
2023-05-21T00:08:52.423Z,99.90
2023-05-21T00:11:21.072Z,99.90
2023-05-21T00:13:52.867Z,99.90
2023-05-21T00:16:21.288Z,99.90
2023-05-21T00:18:50.370Z,99.90
2023-05-21T00:21:27.584Z,99.90
2023-05-21T00:23:56.531Z,99.90
2023-05-21T00:26:25.192Z,99.90
2023-05-21T00:28:53.903Z,99.90
2023-05-21T00:31:22.814Z,99.90
2023-05-21T00:33:53.256Z,99.90
2023-05-21T00:36:23.844Z,99.90
2023-05-21T00:39:05.327Z,99.90
2023-05-21T00:41:35.446Z,99.90
2023-05-21T00:44:04.207Z,99.90
2023-05-21T00:46:32.783Z,99.90
2023-05-21T00:49:02.106Z,99.90
2023-05-21T00:51:34.082Z,99.90
2023-05-21T00:54:05.094Z,99.90
2023-05-21T00:56:34.187Z,99.90
2023-05-21T00:59:05.573Z,99.90
2023-05-21T01:01:39.886Z,99.90
2023-05-21T01:04:09.779Z,99.90
2023-05-21T01:06:40.804Z,99.90
2023-05-21T01:09:10.656Z,99.90
2023-05-21T01:11:42.827Z,99.90
2023-05-21T01:14:14.623Z,99.90
2023-05-21T01:16:50.970Z,99.90
2023-05-21T01:19:22.882Z,99.90
2023-05-21T01:22:00.486Z,99.90
2023-05-21T01:24:37.142Z,99.90
2023-05-21T01:27:10.353Z,99.90
2023-05-21T01:29:45.106Z,99.90
2023-05-21T01:32:24.953Z,99.90
2023-05-21T01:35:01.319Z,99.90
2023-05-21T01:37:36.106Z,99.90
2023-05-21T01:40:12.397Z,99.90
2023-05-21T01:42:43.738Z,99.90
2023-05-21T01:45:13.351Z,99.90
2023-05-21T01:47:43.071Z,99.90
2023-05-21T01:50:12.552Z,99.90
2023-05-21T01:52:43.049Z,99.90
2023-05-21T01:55:13.630Z,99.90
2023-05-21T01:57:41.997Z,99.90
2023-05-21T02:00:14.850Z,99.90
2023-05-21T02:02:43.497Z,99.90
2023-05-21T02:05:12.234Z,99.90
2023-05-21T02:07:41.038Z,99.90
2023-05-21T02:10:10.102Z,99.90
2023-05-21T02:12:43.198Z,99.90
2023-05-21T02:15:18.144Z,99.90
2023-05-21T02:17:51.527Z,99.90
2023-05-21T02:20:23.154Z,99.90
2023-05-21T02:22:51.971Z,99.90
2023-05-21T02:25:32.534Z,99.90
2023-05-21T02:28:02.759Z,99.90
2023-05-21T02:30:33.035Z,99.90
2023-05-21T02:33:07.314Z,99.90
2023-05-21T02:35:38.998Z,99.90
2023-05-21T02:38:09.493Z,99.90
2023-05-21T02:40:45.805Z,99.90
2023-05-21T02:43:24.066Z,99.90
2023-05-21T02:45:59.113Z,99.90
2023-05-21T02:48:35.447Z,99.90
2023-05-21T02:51:10.652Z,99.90
2023-05-21T02:53:43.592Z,99.90
2023-05-21T02:56:18.229Z,99.90
2023-05-21T02:58:50.086Z,99.90
2023-05-21T03:01:25.462Z,99.90
2023-05-21T03:03:55.956Z,99.90
2023-05-21T03:06:28.723Z,99.90
2023-05-21T03:09:01.324Z,99.90
2023-05-21T03:11:34.880Z,99.90
2023-05-21T03:14:07.077Z,99.90
2023-05-21T03:16:42.707Z,99.90
2023-05-21T03:19:17.239Z,99.90
2023-05-21T03:21:52.717Z,99.90
2023-05-21T03:24:22.724Z,99.90
2023-05-21T03:26:55.030Z,99.90
2023-05-21T03:29:29.933Z,99.90
2023-05-21T03:32:11.467Z,99.90
2023-05-21T03:34:47.002Z,99.90
2023-05-21T03:37:17.086Z,99.90
2023-05-21T03:39:46.868Z,99.90
2023-05-21T03:42:18.771Z,99.90
2023-05-21T03:44:49.089Z,99.90
2023-05-21T03:47:18.302Z,99.90
2023-05-21T03:49:50.766Z,99.90
2023-05-21T03:52:22.794Z,99.90
2023-05-21T03:54:55.421Z,99.90
2023-05-21T03:57:25.911Z,99.90
2023-05-21T04:00:03.361Z,99.90
2023-05-21T04:02:37.001Z,99.90
2023-05-21T04:05:07.328Z,99.90
2023-05-21T04:07:39.004Z,99.90
2023-05-21T04:10:12.631Z,99.90
2023-05-21T04:12:42.751Z,99.90
2023-05-21T04:15:15.467Z,99.90
2023-05-21T04:17:46.187Z,99.90
2023-05-21T04:20:28.226Z,99.90
2023-05-21T04:23:09.400Z,99.90
2023-05-21T04:25:51.425Z,99.90
2023-05-21T04:28:30.759Z,99.90
2023-05-21T04:31:03.752Z,99.90
2023-05-21T04:33:36.061Z,99.90
2023-05-21T04:36:11.307Z,99.90
2023-05-21T04:38:42.403Z,99.90
2023-05-21T04:41:15.288Z,99.90
2023-05-21T04:43:52.853Z,99.90
2023-05-21T04:46:27.513Z,99.90
2023-05-21T04:49:18.776Z,99.90
2023-05-21T04:52:02.248Z,99.90
2023-05-21T04:54:34.235Z,99.90
2023-05-21T04:57:03.622Z,99.90
2023-05-21T04:59:37.115Z,99.90
2023-05-21T05:02:10.191Z,99.90
2023-05-21T05:04:46.246Z,99.90
2023-05-21T05:07:23.838Z,99.90
2023-05-21T05:09:59.813Z,99.90
2023-05-21T05:12:37.673Z,99.90
2023-05-21T05:15:13.252Z,99.90
2023-05-21T05:17:49.757Z,99.90
2023-05-21T05:20:27.416Z,99.90
2023-05-21T05:23:03.289Z,99.90
2023-05-21T05:25:35.980Z,99.90
2023-05-21T05:28:14.999Z,99.90
2023-05-21T05:30:47.020Z,99.90
2023-05-21T05:33:27.297Z,99.90
2023-05-21T05:36:17.080Z,99.90
2023-05-21T05:38:53.574Z,99.90
2023-05-21T05:41:27.348Z,99.90
2023-05-21T05:43:58.956Z,99.90
2023-05-21T05:46:40.243Z,99.90
2023-05-21T05:49:20.132Z,99.90
2023-05-21T05:52:00.874Z,99.90
2023-05-21T05:54:35.679Z,99.90
2023-05-21T05:57:11.596Z,99.80
2023-05-21T06:00:00.367Z,99.00
2023-05-21T06:02:48.969Z,98.20
2023-05-21T06:05:29.024Z,97.50
2023-05-21T06:08:03.658Z,97.10
2023-05-21T06:10:50.407Z,96.70
2023-05-21T06:13:28.583Z,95.60
2023-05-21T06:16:11.864Z,95.50
2023-05-21T06:18:49.857Z,94.80
2023-05-21T06:21:30.599Z,94.20
2023-05-21T06:24:25.231Z,94.00
2023-05-21T06:27:02.672Z,93.30
2023-05-21T06:29:51.313Z,92.80
2023-05-21T06:32:25.890Z,92.20
2023-05-21T06:34:58.459Z,91.30
2023-05-21T06:37:39.327Z,90.40
2023-05-21T06:40:22.240Z,88.70
2023-05-21T06:43:06.932Z,88.50
2023-05-21T06:46:21.784Z,86.40
2023-05-21T06:49:17.030Z,85.60
2023-05-21T06:51:57.926Z,85.30
2023-05-21T06:55:20.366Z,85.20
2023-05-21T06:58:17.464Z,84.70
2023-05-21T07:01:11.154Z,84.40
2023-05-21T07:03:56.438Z,83.30
2023-05-21T07:07:13.503Z,81.70
2023-05-21T07:09:51.512Z,80.10
2023-05-21T07:13:03.828Z,78.80
2023-05-21T07:15:44.615Z,76.70
2023-05-21T07:18:35.761Z,75.60
2023-05-21T07:21:13.091Z,73.80
2023-05-21T07:23:46.572Z,74.50
2023-05-21T07:26:31.484Z,73.30
2023-05-21T07:29:14.368Z,73.00
2023-05-21T07:31:52.448Z,73.00
2023-05-21T07:34:26.773Z,72.50
2023-05-21T07:37:04.960Z,71.60
2023-05-21T07:40:22.802Z,70.90
2023-05-21T07:43:46.834Z,69.70
2023-05-21T07:46:25.069Z,68.10
2023-05-21T07:49:22.096Z,69.40
2023-05-21T07:52:14.395Z,67.00
2023-05-21T07:54:58.943Z,67.60
2023-05-21T07:57:37.278Z,67.00
2023-05-21T08:00:27.564Z,66.70
2023-05-21T08:03:00.424Z,64.40
2023-05-21T08:05:39.789Z,63.60
2023-05-21T08:08:14.774Z,63.70
2023-05-21T08:10:51.853Z,63.10
2023-05-21T08:13:28.893Z,64.30
2023-05-21T08:19:52.642Z,62.40
2023-05-21T08:22:36.282Z,61.80
2023-05-21T08:25:15.037Z,61.40
2023-05-21T08:27:55.363Z,61.90
2023-05-21T08:30:41.298Z,60.00
2023-05-21T08:36:44.006Z,59.20
2023-05-21T08:39:22.566Z,58.60
2023-05-21T08:42:10.865Z,57.20
2023-05-21T08:45:32.388Z,57.30
2023-05-21T08:48:05.596Z,56.80
2023-05-21T08:50:44.475Z,56.50
2023-05-21T08:53:37.437Z,56.70
2023-05-21T08:56:12.343Z,56.50
2023-05-21T08:59:09.383Z,56.00
2023-05-21T09:05:31.009Z,56.30
2023-05-21T09:08:15.155Z,56.50
2023-05-21T09:11:51.492Z,56.80
2023-05-21T09:14:51.111Z,57.30
2023-05-21T09:17:45.549Z,57.70
2023-05-21T09:20:49.761Z,57.80
2023-05-21T09:24:06.861Z,58.10
2023-05-21T09:26:46.146Z,57.70
2023-05-21T09:32:29.576Z,58.70
2023-05-21T09:35:16.285Z,58.80
2023-05-21T09:37:53.935Z,59.00
2023-05-21T09:41:01.654Z,59.10
2023-05-21T09:44:26.425Z,59.20
2023-05-21T09:47:09.199Z,59.40
2023-05-21T09:49:57.477Z,59.40
2023-05-21T09:53:17.050Z,59.60
2023-05-21T09:56:36.666Z,59.60
2023-05-21T09:59:11.403Z,58.40
2023-05-21T10:02:30.672Z,59.10
2023-05-21T10:05:05.800Z,58.80
2023-05-21T10:08:42.355Z,59.10
2023-05-21T10:14:59.070Z,58.50
2023-05-21T10:18:12.933Z,58.90
2023-05-21T10:21:16.863Z,58.40
2023-05-21T10:23:58.392Z,59.00
2023-05-21T10:26:55.550Z,58.90
2023-05-21T10:29:50.417Z,59.00
2023-05-21T10:32:34.602Z,58.80
2023-05-21T10:35:50.135Z,58.60
2023-05-21T10:39:10.006Z,58.50
2023-05-21T10:42:08.343Z,58.10
2023-05-21T10:44:56.349Z,57.70
2023-05-21T10:54:23.746Z,58.20
2023-05-21T10:55:42.816Z,57.20
2023-05-21T11:20:53.772Z,57.00
2023-05-21T11:23:34.153Z,57.20
2023-05-21T11:26:43.351Z,57.30
2023-05-21T11:29:23.209Z,57.20
2023-05-21T11:32:54.798Z,57.20
2023-05-21T11:35:39.446Z,57.20
2023-05-21T11:39:29.664Z,57.30
2023-05-21T11:43:03.167Z,57.70
2023-05-21T11:46:20.796Z,58.00
2023-05-21T11:49:29.001Z,58.30
2023-05-21T11:52:35.677Z,58.30
2023-05-21T11:55:52.508Z,58.30
2023-05-21T11:58:55.547Z,58.40
2023-05-21T12:02:34.114Z,58.30
2023-05-21T12:05:22.577Z,58.00
2023-05-21T12:07:58.646Z,58.10
2023-05-21T12:10:52.384Z,58.30
2023-05-21T12:13:58.001Z,58.50
2023-05-21T12:16:49.365Z,58.60
2023-05-21T12:19:28.915Z,58.70
2023-05-21T12:21:59.484Z,58.80
2023-05-21T12:24:47.545Z,58.90
2023-05-21T12:27:39.472Z,59.30
2023-05-21T12:30:18.033Z,59.10
2023-05-21T12:33:15.099Z,58.90
2023-05-21T12:36:26.982Z,58.30
2023-05-21T12:39:40.082Z,58.30
2023-05-21T12:42:38.461Z,58.20
2023-05-21T12:45:43.633Z,58.00
2023-05-21T12:48:20.002Z,57.70
2023-05-21T12:51:25.133Z,57.30
2023-05-21T12:54:27.939Z,57.10
2023-05-21T12:57:12.393Z,57.10
2023-05-21T12:59:57.371Z,57.20
2023-05-21T13:03:04.988Z,56.90
2023-05-21T13:05:38.384Z,56.90
2023-05-21T13:08:26.699Z,57.00
2023-05-21T13:11:27.171Z,57.00
2023-05-21T13:17:34.060Z,57.00
2023-05-21T13:20:39.498Z,57.40
2023-05-21T13:23:41.402Z,57.50
2023-05-21T13:26:39.981Z,57.80
2023-05-21T13:32:11.716Z,58.10
2023-05-21T13:34:50.844Z,58.40
2023-05-21T13:37:25.690Z,58.30
2023-05-21T13:42:51.014Z,58.50
2023-05-21T13:45:31.452Z,58.70
2023-05-21T13:51:22.417Z,58.90
2023-05-21T13:53:59.615Z,59.10
2023-05-21T13:56:27.994Z,59.20
2023-05-21T13:58:56.575Z,58.90
2023-05-21T14:01:25.032Z,58.80
2023-05-21T14:03:53.755Z,58.60
2023-05-21T14:06:23.380Z,58.30
2023-05-21T14:08:51.922Z,58.40
2023-05-21T14:11:20.291Z,58.30
2023-05-21T14:13:48.913Z,58.40
2023-05-21T14:16:18.272Z,58.40
2023-05-21T14:18:47.138Z,58.50
2023-05-21T14:21:15.533Z,58.60
2023-05-21T14:23:45.678Z,58.50
2023-05-21T14:26:13.963Z,58.70
2023-05-21T14:28:42.854Z,59.00
2023-05-21T14:31:11.259Z,59.00
2023-05-21T14:33:40.487Z,59.10
2023-05-21T14:36:08.884Z,59.10
2023-05-21T14:38:37.386Z,59.10
2023-05-21T14:41:07.450Z,59.10
2023-05-21T14:43:36.093Z,59.00
2023-05-21T14:46:04.624Z,58.60
2023-05-21T14:48:33.205Z,58.30
2023-05-21T14:51:01.525Z,58.50
2023-05-21T14:53:30.272Z,58.40
2023-05-21T14:55:58.721Z,58.40
2023-05-21T14:58:28.603Z,58.50
2023-05-21T15:00:56.880Z,58.60
2023-05-21T15:03:25.541Z,58.70
2023-05-21T15:05:54.075Z,58.60
2023-05-21T15:08:22.715Z,58.80
2023-05-21T15:10:51.031Z,58.90
2023-05-21T15:13:19.519Z,58.80
2023-05-21T15:15:49.153Z,58.70
2023-05-21T15:18:17.718Z,58.70
2023-05-21T15:20:46.194Z,58.70
2023-05-21T15:23:17.267Z,58.50
2023-05-21T15:25:45.946Z,58.40
2023-05-21T15:28:16.053Z,58.50
2023-05-21T15:30:44.441Z,58.70
2023-05-21T15:33:14.417Z,58.70
2023-05-21T15:35:43.122Z,58.60
2023-05-21T15:38:12.007Z,58.70
2023-05-21T15:40:41.396Z,58.60
2023-05-21T15:43:10.054Z,58.70
2023-05-21T15:45:39.145Z,58.60
2023-05-21T15:48:08.512Z,58.50
2023-05-21T15:50:38.219Z,58.50
2023-05-21T15:53:06.741Z,58.40
2023-05-21T15:55:35.533Z,58.50
2023-05-21T15:58:05.069Z,58.60
2023-05-21T16:00:33.442Z,58.60
2023-05-21T16:03:02.267Z,58.60
2023-05-21T16:05:30.712Z,58.70
2023-05-21T16:08:00.725Z,58.60
2023-05-21T16:10:29.000Z,58.50
2023-05-21T16:12:57.492Z,58.40
2023-05-21T16:15:25.697Z,58.50
2023-05-21T16:17:54.257Z,58.60
2023-05-21T16:20:22.546Z,59.30
2023-05-21T16:22:51.209Z,58.80
2023-05-21T16:25:21.113Z,58.80
2023-05-21T16:27:50.015Z,58.90
2023-05-21T16:30:18.811Z,58.80
2023-05-21T16:32:47.367Z,58.80
2023-05-21T16:35:15.764Z,58.70
2023-05-21T16:37:44.247Z,58.40
2023-05-21T16:40:13.492Z,58.20
2023-05-21T16:42:43.771Z,58.00
2023-05-21T16:45:19.416Z,57.70
2023-05-21T16:47:48.835Z,57.70
2023-05-21T16:50:17.453Z,57.70
2023-05-21T16:52:46.201Z,57.80
2023-05-21T16:55:14.488Z,57.50
2023-05-21T16:57:44.313Z,57.60
2023-05-21T17:00:13.564Z,57.70
2023-05-21T17:02:42.315Z,57.90
2023-05-21T17:05:10.922Z,57.90
2023-05-21T17:07:39.440Z,58.00
2023-05-21T17:10:08.833Z,58.00
2023-05-21T17:12:37.656Z,58.30
2023-05-21T17:15:08.738Z,58.50
2023-05-21T17:17:37.305Z,58.70
2023-05-21T17:20:06.254Z,58.80
2023-05-21T17:22:34.741Z,59.10
2023-05-21T17:25:03.106Z,59.30
2023-05-21T17:27:32.425Z,59.40
2023-05-21T17:30:00.606Z,59.60
2023-05-21T17:32:30.589Z,59.80
2023-05-21T17:34:58.955Z,60.00
2023-05-21T17:37:27.488Z,60.10
2023-05-21T17:39:57.639Z,60.30
2023-05-21T17:42:26.183Z,60.60
2023-05-21T17:44:55.009Z,60.70
2023-05-21T17:47:23.590Z,61.00
2023-05-21T17:49:53.324Z,61.20
2023-05-21T17:52:21.879Z,61.50
2023-05-21T17:54:50.132Z,61.70
2023-05-21T17:57:20.281Z,62.00
2023-05-21T17:59:48.586Z,62.20
2023-05-21T18:02:17.099Z,62.40
2023-05-21T18:04:45.410Z,62.60
2023-05-21T18:07:16.091Z,62.90
2023-05-21T18:09:44.584Z,63.20
2023-05-21T18:12:13.077Z,63.40
2023-05-21T18:14:41.329Z,63.70
2023-05-21T18:17:09.965Z,63.90
2023-05-21T18:19:38.333Z,64.10
2023-05-21T18:22:06.847Z,64.50
2023-05-21T18:24:37.494Z,64.90
2023-05-21T18:27:06.234Z,65.30
2023-05-21T18:29:34.460Z,65.60
2023-05-21T18:32:04.168Z,66.30
2023-05-21T18:34:32.481Z,66.90
2023-05-21T18:37:01.049Z,67.50
2023-05-21T18:39:29.255Z,68.20
2023-05-21T18:42:12.311Z,69.10
2023-05-21T18:44:42.042Z,69.90
2023-05-21T18:47:11.509Z,70.60
2023-05-21T18:49:39.770Z,71.40
2023-05-21T18:52:08.505Z,72.00
2023-05-21T18:54:36.762Z,72.60
2023-05-21T18:57:07.221Z,73.40
2023-05-21T18:59:35.413Z,74.10
2023-05-21T19:02:05.594Z,74.60
2023-05-21T19:04:33.911Z,75.30
2023-05-21T19:07:02.981Z,75.80
2023-05-21T19:09:31.468Z,76.30
2023-05-21T19:12:01.087Z,76.90
2023-05-21T19:14:30.680Z,77.30
2023-05-21T19:16:59.178Z,77.80
2023-05-21T19:19:27.528Z,78.30
2023-05-21T19:21:56.112Z,78.80
2023-05-21T19:24:24.295Z,79.30
2023-05-21T19:26:52.817Z,79.70
2023-05-21T19:29:21.475Z,80.20
2023-05-21T19:31:54.988Z,80.50
2023-05-21T19:34:23.528Z,81.00
2023-05-21T19:36:53.423Z,81.40
2023-05-21T19:39:22.259Z,81.80
2023-05-21T19:41:51.618Z,82.10
2023-05-21T19:44:19.942Z,82.40
2023-05-21T19:46:49.869Z,82.70
2023-05-21T19:49:20.056Z,83.20
2023-05-21T19:51:49.620Z,83.50
2023-05-21T19:54:18.519Z,83.80
2023-05-21T19:56:47.034Z,84.10
2023-05-21T19:59:15.257Z,84.40
2023-05-21T20:01:44.331Z,84.70
2023-05-21T20:04:13.118Z,85.00
2023-05-21T20:06:43.198Z,85.40
2023-05-21T20:09:13.304Z,85.50
2023-05-21T20:11:43.157Z,85.90
2023-05-21T20:14:11.362Z,86.20
2023-05-21T20:16:39.988Z,86.50
2023-05-21T20:19:10.668Z,86.70
2023-05-21T20:21:39.728Z,86.90
2023-05-21T20:24:11.177Z,87.30
2023-05-21T20:26:39.979Z,87.50
2023-05-21T20:29:08.380Z,87.70
2023-05-21T20:31:37.043Z,87.90
2023-05-21T20:34:07.484Z,88.30
2023-05-21T20:36:36.286Z,88.40
2023-05-21T20:39:06.298Z,88.70
2023-05-21T20:41:37.859Z,88.80
2023-05-21T20:44:06.850Z,89.10
2023-05-21T20:46:38.552Z,89.30
2023-05-21T20:49:07.142Z,89.50
2023-05-21T20:51:35.845Z,89.60
2023-05-21T20:54:04.139Z,89.70
2023-05-21T20:56:42.036Z,90.00
2023-05-21T20:59:12.480Z,90.00
2023-05-21T21:01:41.587Z,90.10
2023-05-21T21:04:10.137Z,90.10
2023-05-21T21:06:40.503Z,90.20
2023-05-21T21:09:09.430Z,90.30
2023-05-21T21:11:38.016Z,90.50
2023-05-21T21:14:06.296Z,90.60
2023-05-21T21:16:36.453Z,90.70
2023-05-21T21:19:05.071Z,90.80
2023-05-21T21:21:34.169Z,90.80
2023-05-21T21:24:02.437Z,90.90
2023-05-21T21:26:31.091Z,91.00
2023-05-21T21:28:59.538Z,91.10
2023-05-21T21:31:28.082Z,91.20
2023-05-21T21:33:57.854Z,91.20
2023-05-21T21:36:28.770Z,91.30
2023-05-21T21:38:57.112Z,91.30
2023-05-21T21:41:25.962Z,91.30
2023-05-21T21:43:54.333Z,91.40
2023-05-21T21:46:22.860Z,91.50
2023-05-21T21:48:51.174Z,91.60
2023-05-21T21:51:23.366Z,91.70
2023-05-21T21:53:51.997Z,91.80
2023-05-21T21:56:20.844Z,92.00
2023-05-21T21:58:49.147Z,92.10
2023-05-21T22:01:17.333Z,92.20
2023-05-21T22:03:45.905Z,92.60
2023-05-21T22:06:14.253Z,92.30
2023-05-21T22:08:44.313Z,92.50
2023-05-21T22:11:12.616Z,92.60
2023-05-21T22:13:42.564Z,92.60
2023-05-21T22:16:11.987Z,92.80
2023-05-21T22:18:42.096Z,92.90
2023-05-21T22:21:11.032Z,93.00
2023-05-21T22:23:39.952Z,93.10
2023-05-21T22:26:10.535Z,93.10
2023-05-21T22:28:39.159Z,93.60
2023-05-21T22:31:07.548Z,93.40
2023-05-21T22:33:36.671Z,93.50
2023-05-21T22:36:05.396Z,93.70
2023-05-21T22:38:34.084Z,93.80
2023-05-21T22:41:02.429Z,93.80
2023-05-21T22:43:34.067Z,93.90
2023-05-21T22:46:02.952Z,94.10
2023-05-21T22:48:31.584Z,94.30
2023-05-21T22:51:01.677Z,94.40
2023-05-21T22:53:31.965Z,94.50
2023-05-21T22:56:00.685Z,94.60
2023-05-21T22:58:29.267Z,94.70
2023-05-21T23:00:59.123Z,94.90
2023-05-21T23:03:27.624Z,95.00
2023-05-21T23:05:55.930Z,95.10
2023-05-21T23:08:24.388Z,95.20
2023-05-21T23:10:52.581Z,95.30
2023-05-21T23:13:21.473Z,95.50
2023-05-21T23:15:50.780Z,95.60
2023-05-21T23:18:20.928Z,95.80
2023-05-21T23:20:49.316Z,95.90
2023-05-21T23:23:17.847Z,96.00
2023-05-21T23:25:46.737Z,96.20
2023-05-21T23:28:15.421Z,96.30
2023-05-21T23:30:43.694Z,96.50
2023-05-21T23:33:12.212Z,96.60
2023-05-21T23:35:41.807Z,96.80
2023-05-21T23:38:10.378Z,96.90
2023-05-21T23:40:38.904Z,97.00
2023-05-21T23:43:07.660Z,97.20
2023-05-21T23:45:35.958Z,97.50
2023-05-21T23:48:04.789Z,97.60
2023-05-21T23:50:33.072Z,97.70
2023-05-21T23:53:03.018Z,97.80
2023-05-21T23:55:31.336Z,98.10
2023-05-21T23:57:59.842Z,98.20
